createdAt,value
2018-11-23T00:00:34.165Z,43.90
2018-11-23T00:01:34.178Z,43.60
2018-11-23T00:02:34.192Z,44.90
2018-11-23T00:03:34.196Z,43.00
2018-11-23T00:04:34.206Z,43.30
2018-11-23T00:05:34.220Z,47.40
2018-11-23T00:06:34.233Z,45.80
2018-11-23T00:07:34.249Z,49.40
2018-11-23T00:08:34.254Z,45.20
2018-11-23T00:09:34.262Z,44.50
2018-11-23T00:10:34.274Z,44.10
2018-11-23T00:11:34.287Z,45.20
2018-11-23T00:12:34.302Z,43.60
2018-11-23T00:13:34.314Z,45.20
2018-11-23T00:14:34.317Z,41.90
2018-11-23T00:15:34.331Z,45.60
2018-11-23T00:16:34.343Z,44.10
2018-11-23T00:17:34.361Z,44.80
2018-11-23T00:18:34.358Z,41.70
2018-11-23T00:19:34.372Z,45.20
2018-11-23T00:20:34.385Z,42.70
2018-11-23T00:21:34.400Z,45.60
2018-11-23T00:22:34.412Z,43.90
2018-11-23T00:23:34.425Z,50.20
2018-11-23T00:24:34.427Z,48.90
2018-11-23T00:25:34.442Z,42.30
2018-11-23T00:26:34.455Z,43.70
2018-11-23T00:27:34.467Z,42.50
2018-11-23T00:28:34.483Z,44.10
2018-11-23T00:29:34.482Z,44.80
2018-11-23T00:30:34.495Z,48.40
2018-11-23T00:31:34.508Z,45.00
2018-11-23T00:32:34.522Z,44.20
2018-11-23T00:33:34.528Z,44.00
2018-11-23T00:34:34.537Z,43.50
2018-11-23T00:35:34.550Z,49.90
2018-11-23T00:36:34.563Z,50.10
2018-11-23T00:37:34.578Z,47.50
2018-11-23T00:38:34.579Z,46.10
2018-11-23T00:39:34.591Z,49.10
2018-11-23T00:40:34.607Z,47.40
2018-11-23T00:41:34.631Z,41.60
2018-11-23T00:42:34.634Z,51.40
2018-11-23T00:43:34.634Z,45.10
2018-11-23T00:44:34.647Z,49.80
2018-11-23T00:45:35.657Z,47.00
2018-11-23T00:46:34.687Z,51.10
2018-11-23T00:47:34.688Z,46.40
2018-11-23T00:48:34.690Z,46.00
2018-11-23T00:49:34.746Z,49.50
2018-11-23T00:50:34.717Z,41.80
2018-11-23T00:51:34.730Z,49.60
2018-11-23T00:52:34.742Z,50.30
2018-11-23T00:53:34.745Z,54.70
2018-11-23T00:54:34.758Z,50.60
2018-11-23T00:55:34.771Z,51.00
2018-11-23T00:56:34.787Z,50.50
2018-11-23T00:57:34.798Z,51.30
2018-11-23T00:58:34.798Z,49.60
2018-11-23T00:59:34.825Z,47.30
2018-11-23T01:00:34.828Z,45.40
2018-11-23T01:01:34.840Z,56.30
2018-11-23T01:02:34.853Z,47.80
2018-11-23T01:03:34.857Z,47.80
2018-11-23T01:04:34.868Z,55.50
2018-11-23T01:05:34.883Z,46.30
2018-11-23T01:06:34.907Z,49.40
2018-11-23T01:07:34.909Z,53.50
2018-11-23T01:08:34.928Z,50.60
2018-11-23T01:09:34.922Z,51.20
2018-11-23T01:10:34.936Z,54.10
2018-11-23T01:11:34.953Z,51.50
2018-11-23T01:12:34.963Z,48.90
2018-11-23T01:13:34.966Z,49.90
2018-11-23T01:14:34.977Z,49.20
2018-11-23T01:15:34.992Z,54.00
2018-11-23T01:16:35.004Z,49.40
2018-11-23T01:17:35.020Z,52.80
2018-11-23T01:18:35.031Z,54.50
2018-11-23T01:19:35.033Z,54.90
2018-11-23T01:20:35.048Z,45.50
2018-11-23T01:21:35.060Z,45.70
2018-11-23T01:22:35.074Z,57.80
2018-11-23T01:23:35.088Z,52.10
2018-11-23T01:24:35.090Z,54.20
2018-11-23T01:25:35.102Z,43.60
2018-11-23T01:26:35.115Z,51.70
2018-11-23T01:27:35.129Z,52.90
2018-11-23T01:28:35.142Z,49.00
2018-11-23T01:29:35.144Z,53.30
2018-11-23T01:30:35.158Z,47.80
2018-11-23T01:31:35.169Z,52.00
2018-11-23T01:32:35.184Z,53.50
2018-11-23T01:33:35.197Z,54.90
2018-11-23T01:34:35.198Z,55.60
2018-11-23T01:35:35.212Z,48.30
2018-11-23T01:36:35.225Z,57.90
2018-11-23T01:37:35.240Z,55.60
2018-11-23T01:38:35.257Z,52.50
2018-11-23T01:39:35.254Z,49.70
2018-11-23T01:40:35.271Z,51.60
2018-11-23T01:41:35.280Z,54.10
2018-11-23T01:42:35.295Z,48.70
2018-11-23T01:43:35.307Z,50.60
2018-11-23T01:44:35.321Z,51.40
2018-11-23T01:45:35.323Z,57.70
2018-11-23T01:46:35.336Z,58.20
2018-11-23T01:47:35.349Z,57.50
2018-11-23T01:48:35.363Z,50.20
2018-11-23T01:49:35.367Z,51.90
2018-11-23T01:50:35.378Z,56.80
2018-11-23T01:51:35.392Z,50.60
2018-11-23T01:52:35.405Z,56.00
2018-11-23T01:53:35.432Z,55.50
2018-11-23T01:54:35.432Z,53.60
2018-11-23T01:55:35.433Z,54.50
2018-11-23T01:56:35.446Z,52.70
2018-11-23T01:57:35.460Z,56.00
2018-11-23T01:58:35.473Z,51.20
2018-11-23T01:59:35.490Z,56.80
2018-11-23T02:00:35.488Z,53.50
2018-11-23T02:01:35.501Z,57.30
2018-11-23T02:02:35.515Z,57.90
2018-11-23T02:03:35.527Z,56.50
2018-11-23T02:04:35.543Z,56.10
2018-11-23T02:05:35.544Z,57.90
2018-11-23T02:06:35.557Z,57.60
2018-11-23T02:07:35.570Z,61.30
2018-11-23T02:08:35.583Z,61.40
2018-11-23T02:09:35.598Z,66.00
2018-11-23T02:10:35.599Z,65.60
2018-11-23T02:11:35.611Z,62.00
2018-11-23T02:12:35.625Z,60.60
2018-11-23T02:13:35.650Z,63.20
2018-11-23T02:14:35.652Z,61.00
2018-11-23T02:15:35.664Z,56.90
2018-11-23T02:16:35.666Z,61.30
2018-11-23T02:17:35.680Z,62.30
2018-11-23T02:18:35.693Z,60.80
2018-11-23T02:19:35.708Z,59.90
2018-11-23T02:20:35.720Z,62.20
2018-11-23T02:21:35.722Z,66.90
2018-11-23T02:22:35.735Z,59.10
2018-11-23T02:23:35.750Z,62.40
2018-11-23T02:24:35.763Z,62.10
2018-11-23T02:25:35.775Z,63.70
2018-11-23T02:26:35.778Z,66.00
2018-11-23T02:27:35.791Z,57.30
2018-11-23T02:28:35.805Z,66.20
2018-11-23T02:29:35.819Z,64.70
2018-11-23T02:30:35.831Z,63.70
2018-11-23T02:31:35.833Z,70.20
2018-11-23T02:32:35.846Z,64.00
2018-11-23T02:33:35.860Z,68.70
2018-11-23T02:34:35.874Z,77.30
2018-11-23T02:35:35.886Z,72.10
2018-11-23T02:36:35.893Z,66.20
2018-11-23T02:37:35.902Z,68.70
2018-11-23T02:38:35.916Z,71.20
2018-11-23T02:39:35.928Z,68.80
2018-11-23T02:40:35.941Z,66.90
2018-11-23T02:41:35.943Z,68.80
2018-11-23T02:42:35.956Z,70.80
2018-11-23T02:43:35.971Z,76.60
2018-11-23T02:44:35.984Z,66.30
2018-11-23T02:45:35.997Z,64.90
2018-11-23T02:46:35.998Z,72.90
2018-11-23T02:47:36.013Z,69.90
2018-11-23T02:48:36.025Z,75.20
2018-11-23T02:49:36.039Z,67.40
2018-11-23T02:50:36.052Z,71.30
2018-11-23T02:51:36.053Z,76.20
2018-11-23T02:52:36.066Z,74.70
2018-11-23T02:53:36.095Z,73.10
2018-11-23T02:54:36.094Z,75.30
2018-11-23T02:55:36.107Z,73.60
2018-11-23T02:56:36.107Z,77.20
2018-11-23T02:57:36.123Z,84.30
2018-11-23T02:58:36.134Z,74.20
2018-11-23T02:59:36.150Z,80.60
2018-11-23T03:00:36.175Z,77.40
2018-11-23T03:01:36.163Z,81.30
2018-11-23T03:02:36.177Z,74.80
2018-11-23T03:03:36.191Z,80.50
2018-11-23T03:04:36.205Z,75.60
2018-11-23T03:05:36.217Z,85.10
2018-11-23T03:06:36.219Z,76.00
2018-11-23T03:07:36.234Z,82.50
2018-11-23T03:08:36.247Z,81.70
2018-11-23T03:09:36.259Z,85.10
2018-11-23T03:10:36.261Z,75.40
2018-11-23T03:11:36.274Z,82.30
2018-11-23T03:12:36.292Z,87.10
2018-11-23T03:13:36.300Z,83.60
2018-11-23T03:14:36.315Z,81.40
2018-11-23T03:15:36.316Z,82.40
2018-11-23T03:16:36.328Z,89.40
2018-11-23T03:17:36.342Z,83.80
2018-11-23T03:18:36.355Z,89.80
2018-11-23T03:19:36.369Z,77.00
2018-11-23T03:20:36.396Z,87.50
2018-11-23T03:21:36.398Z,81.90
2018-11-23T03:22:36.399Z,87.40
2018-11-23T03:23:36.410Z,88.50
2018-11-23T03:24:36.425Z,92.20
2018-11-23T03:25:36.427Z,84.30
2018-11-23T03:26:36.452Z,91.30
2018-11-23T03:27:36.454Z,86.90
2018-11-23T03:28:36.467Z,92.30
2018-11-23T03:29:36.481Z,89.80
2018-11-23T03:30:36.481Z,91.10
2018-11-23T03:31:36.494Z,80.00
2018-11-23T03:32:36.509Z,92.30
2018-11-23T03:33:36.522Z,86.10
2018-11-23T03:34:36.536Z,87.60
2018-11-23T03:35:36.548Z,87.90
2018-11-23T03:36:36.550Z,83.30
2018-11-23T03:37:36.563Z,89.50
2018-11-23T03:38:36.576Z,94.80
2018-11-23T03:39:36.591Z,87.00
2018-11-23T03:40:36.603Z,92.40
2018-11-23T03:41:36.604Z,93.10
2018-11-23T03:42:36.619Z,86.70
2018-11-23T03:43:36.632Z,92.10
2018-11-23T03:44:36.646Z,91.10
2018-11-23T03:45:36.664Z,91.00
2018-11-23T03:46:36.675Z,89.50
2018-11-23T03:47:36.675Z,89.80
2018-11-23T03:48:36.687Z,99.40
2018-11-23T03:49:36.706Z,94.70
2018-11-23T03:50:36.717Z,90.60
2018-11-23T03:51:36.716Z,87.80
2018-11-23T03:52:36.728Z,89.20
2018-11-23T03:53:36.744Z,86.50
2018-11-23T03:54:36.756Z,92.80
2018-11-23T03:55:36.771Z,95.30
2018-11-23T03:56:36.772Z,93.80
2018-11-23T03:57:36.785Z,91.10
2018-11-23T03:58:36.800Z,90.60
2018-11-23T03:59:36.811Z,96.60
2018-11-23T04:00:36.824Z,91.70
2018-11-23T04:01:36.830Z,87.20
2018-11-23T04:02:36.841Z,92.00
2018-11-23T04:03:36.852Z,84.80
2018-11-23T04:04:36.868Z,92.30
2018-11-23T04:05:36.920Z,91.10
2018-11-23T04:06:36.893Z,91.40
2018-11-23T04:07:36.895Z,96.00
2018-11-23T04:08:36.908Z,94.90
2018-11-23T04:09:36.921Z,95.20
2018-11-23T04:10:36.934Z,100.30
2018-11-23T04:11:36.948Z,93.90
2018-11-23T04:12:36.949Z,95.20
2018-11-23T04:13:36.964Z,97.90
2018-11-23T04:14:36.976Z,99.10
2018-11-23T04:15:36.990Z,87.80
2018-11-23T04:16:37.005Z,88.30
2018-11-23T04:17:37.005Z,92.40
2018-11-23T04:18:37.021Z,100.80
2018-11-23T04:19:37.035Z,97.70
2018-11-23T04:20:37.057Z,87.50
2018-11-23T04:21:37.059Z,99.20
2018-11-23T04:22:37.072Z,102.30
2018-11-23T04:23:37.072Z,96.30
2018-11-23T04:24:37.089Z,90.80
2018-11-23T04:25:37.100Z,85.10
2018-11-23T04:26:37.114Z,101.70
2018-11-23T04:27:37.140Z,91.30
2018-11-23T04:28:37.129Z,91.50
2018-11-23T04:29:37.144Z,96.90
2018-11-23T04:30:37.157Z,100.00
2018-11-23T04:31:37.170Z,101.20
2018-11-23T04:32:37.184Z,91.20
2018-11-23T04:33:37.196Z,96.30
2018-11-23T04:34:37.198Z,92.30
2018-11-23T04:35:37.212Z,91.60
2018-11-23T04:36:37.226Z,97.40
2018-11-23T04:37:37.237Z,105.80
2018-11-23T04:38:37.251Z,102.80
2018-11-23T04:39:37.252Z,93.10
2018-11-23T04:40:37.267Z,93.90
2018-11-23T04:41:37.279Z,91.90
2018-11-23T04:42:37.292Z,103.10
2018-11-23T04:43:37.309Z,93.70
2018-11-23T04:44:37.310Z,94.00
2018-11-23T04:45:37.320Z,86.40
2018-11-23T04:46:37.336Z,101.70
2018-11-23T04:47:37.349Z,91.20
2018-11-23T04:48:37.364Z,95.00
2018-11-23T04:49:37.364Z,106.80
2018-11-23T04:50:37.377Z,100.20
2018-11-23T04:51:37.390Z,106.80
2018-11-23T04:52:37.402Z,95.30
2018-11-23T04:53:37.417Z,97.90
2018-11-23T04:54:37.419Z,90.80
2018-11-23T04:55:37.430Z,102.00
2018-11-23T04:56:37.444Z,105.80
2018-11-23T04:57:37.459Z,96.30
2018-11-23T04:58:37.472Z,106.50
2018-11-23T04:59:37.484Z,100.60
2018-11-23T05:00:37.485Z,97.30
2018-11-23T05:01:37.500Z,94.70
2018-11-23T05:02:37.514Z,100.20
2018-11-23T05:03:37.533Z,102.80
2018-11-23T05:04:37.540Z,97.50
2018-11-23T05:05:37.541Z,96.40
2018-11-23T05:06:37.556Z,108.30
2018-11-23T05:07:37.567Z,98.00
2018-11-23T05:08:37.584Z,103.00
2018-11-23T05:09:37.596Z,107.70
2018-11-23T05:10:37.597Z,99.70
2018-11-23T05:11:37.613Z,91.60
2018-11-23T05:12:37.623Z,110.10
2018-11-23T05:13:37.636Z,98.20
2018-11-23T05:14:37.639Z,103.50
2018-11-23T05:15:37.653Z,99.20
2018-11-23T05:16:37.666Z,105.30
2018-11-23T05:17:37.682Z,98.60
2018-11-23T05:18:37.716Z,98.80
2018-11-23T05:19:37.705Z,97.10
2018-11-23T05:20:37.706Z,101.50
2018-11-23T05:21:37.720Z,106.70
2018-11-23T05:22:37.733Z,102.30
2018-11-23T05:23:37.748Z,106.30
2018-11-23T05:24:37.749Z,112.80
2018-11-23T05:25:37.763Z,94.50
2018-11-23T05:26:37.775Z,116.50
2018-11-23T05:27:37.788Z,110.20
2018-11-23T05:28:37.803Z,95.50
2018-11-23T05:29:37.804Z,109.30
2018-11-23T05:30:37.816Z,108.00
2018-11-23T05:31:37.832Z,108.60
2018-11-23T05:32:37.844Z,106.90
2018-11-23T05:33:37.858Z,109.30
2018-11-23T05:34:37.859Z,114.00
2018-11-23T05:35:37.873Z,111.20
2018-11-23T05:36:37.885Z,115.60
2018-11-23T05:37:37.902Z,103.30
2018-11-23T05:38:37.913Z,113.50
2018-11-23T05:39:37.914Z,114.80
2018-11-23T05:40:37.941Z,111.80
2018-11-23T05:41:37.941Z,121.50
2018-11-23T05:42:37.953Z,120.30
2018-11-23T05:43:37.968Z,123.30
2018-11-23T05:44:37.970Z,117.40
2018-11-23T05:45:37.982Z,116.40
2018-11-23T05:46:37.995Z,123.50
2018-11-23T05:47:38.011Z,117.00
2018-11-23T05:48:38.025Z,115.30
2018-11-23T05:49:38.024Z,110.90
2018-11-23T05:50:38.039Z,116.10
2018-11-23T05:51:38.051Z,120.60
2018-11-23T05:52:38.065Z,125.50
2018-11-23T05:53:38.069Z,113.40
2018-11-23T05:54:38.080Z,111.50
2018-11-23T05:55:38.092Z,117.00
2018-11-23T05:56:38.106Z,114.60
2018-11-23T05:57:38.118Z,114.60
2018-11-23T05:58:38.133Z,122.10
2018-11-23T05:59:38.133Z,111.20
2018-11-23T06:00:38.163Z,122.30
2018-11-23T06:01:38.161Z,122.20
2018-11-23T06:02:38.174Z,124.40
2018-11-23T06:03:38.188Z,111.60
2018-11-23T06:04:38.193Z,107.30
2018-11-23T06:05:38.203Z,110.30
2018-11-23T06:06:42.253Z,115.40
2018-11-23T06:07:38.230Z,118.20
2018-11-23T06:08:38.245Z,116.40
2018-11-23T06:09:38.245Z,115.90
2018-11-23T06:10:38.258Z,116.10
2018-11-23T06:11:38.273Z,120.70
2018-11-23T06:12:38.287Z,120.40
2018-11-23T06:13:38.300Z,116.90
2018-11-23T06:14:38.311Z,127.10
2018-11-23T06:15:44.282Z,118.10
2018-11-23T06:16:38.328Z,132.90
2018-11-23T06:17:38.339Z,114.60
2018-11-23T06:18:38.353Z,127.80
2018-11-23T06:19:38.367Z,105.60
2018-11-23T06:20:38.368Z,121.90
2018-11-23T06:21:38.384Z,120.80
2018-11-23T06:22:38.395Z,115.30
2018-11-23T06:23:38.410Z,112.90
2018-11-23T06:24:38.422Z,124.70
2018-11-23T06:25:38.423Z,122.00
2018-11-23T06:26:38.437Z,118.70
2018-11-23T06:27:38.450Z,120.20
2018-11-23T06:28:38.464Z,124.90
2018-11-23T06:29:38.477Z,115.30
2018-11-23T06:30:38.491Z,115.80
2018-11-23T06:31:38.493Z,110.30
2018-11-23T06:32:38.505Z,119.60
2018-11-23T06:33:38.522Z,124.50
2018-11-23T06:34:38.532Z,130.50
2018-11-23T06:35:38.547Z,122.40
2018-11-23T06:36:38.558Z,126.40
2018-11-23T06:37:38.563Z,117.20
2018-11-23T06:38:38.574Z,113.90
2018-11-23T06:39:38.588Z,121.30
2018-11-23T06:40:38.601Z,115.40
2018-11-23T06:41:38.627Z,114.50
2018-11-23T06:42:42.170Z,119.20
2018-11-23T06:43:38.629Z,116.60
2018-11-23T06:44:38.642Z,110.20
2018-11-23T06:45:38.658Z,118.50
2018-11-23T06:46:38.669Z,114.50
2018-11-23T06:47:38.685Z,115.00
2018-11-23T06:48:38.685Z,118.30
2018-11-23T06:49:38.698Z,119.50
2018-11-23T06:50:38.712Z,125.10
2018-11-23T06:51:38.725Z,120.50
2018-11-23T06:52:38.739Z,117.70
2018-11-23T06:53:38.752Z,129.60
2018-11-23T06:54:38.756Z,120.20
2018-11-23T06:55:38.767Z,131.20
2018-11-23T06:56:38.789Z,114.70
2018-11-23T06:57:38.793Z,122.80
2018-11-23T06:58:38.807Z,118.10
2018-11-23T06:59:38.821Z,122.90
2018-11-23T07:00:38.822Z,111.80
2018-11-23T07:01:38.836Z,122.50
2018-11-23T07:02:38.850Z,114.50
2018-11-23T07:03:38.862Z,123.00
2018-11-23T07:04:38.881Z,124.10
2018-11-23T07:05:38.877Z,125.90
2018-11-23T07:06:38.890Z,121.50
2018-11-23T07:07:38.904Z,113.00
2018-11-23T07:08:38.917Z,123.10
2018-11-23T07:09:38.930Z,122.00
2018-11-23T07:10:38.944Z,124.30
2018-11-23T07:11:38.950Z,127.00
2018-11-23T07:12:38.959Z,121.10
2018-11-23T07:13:38.976Z,120.20
2018-11-23T07:14:38.988Z,124.30
2018-11-23T07:15:38.999Z,116.50
2018-11-23T07:16:39.014Z,122.60
2018-11-23T07:17:39.015Z,124.20
2018-11-23T07:18:39.027Z,116.70
2018-11-23T07:19:39.042Z,121.30
2018-11-23T07:20:39.054Z,109.00
2018-11-23T07:21:39.072Z,121.00
2018-11-23T07:22:39.082Z,114.90
2018-11-23T07:23:39.084Z,118.10
2018-11-23T07:24:39.100Z,117.60
2018-11-23T07:25:39.109Z,123.20
2018-11-23T07:26:39.123Z,127.00
2018-11-23T07:27:39.140Z,109.80
2018-11-23T07:28:39.150Z,119.80
2018-11-23T07:29:39.151Z,119.50
2018-11-23T07:30:39.165Z,127.50
2018-11-23T07:31:39.179Z,117.10
2018-11-23T07:32:39.198Z,119.10
2018-11-23T07:33:39.206Z,118.40
2018-11-23T07:34:39.219Z,118.80
2018-11-23T07:35:39.221Z,123.40
2018-11-23T07:36:39.234Z,126.70
2018-11-23T07:37:39.246Z,114.00
2018-11-23T07:38:39.262Z,119.80
2018-11-23T07:39:39.425Z,115.20
2018-11-23T07:40:39.289Z,114.70
2018-11-23T07:41:39.289Z,103.10
2018-11-23T07:42:39.302Z,106.00
2018-11-23T07:43:39.316Z,113.80
2018-11-23T07:44:39.329Z,115.90
2018-11-23T07:45:39.344Z,114.20
2018-11-23T07:46:39.372Z,110.30
2018-11-23T07:47:39.370Z,123.00
2018-11-23T07:48:39.371Z,109.30
2018-11-23T07:49:39.385Z,121.90
2018-11-23T07:50:39.398Z,107.90
2018-11-23T07:51:39.411Z,116.10
2018-11-23T07:52:39.427Z,122.00
2018-11-23T07:53:39.426Z,115.20
2018-11-23T07:54:39.439Z,116.80
2018-11-23T07:55:39.455Z,117.10
2018-11-23T07:56:39.466Z,119.20
2018-11-23T07:57:39.480Z,119.70
2018-11-23T07:58:39.493Z,118.10
2018-11-23T07:59:39.508Z,110.90
2018-11-23T08:00:39.520Z,122.10
2018-11-23T08:01:39.522Z,115.50
2018-11-23T08:02:39.535Z,103.40
2018-11-23T08:03:39.548Z,110.70
2018-11-23T08:04:39.563Z,118.20
2018-11-23T08:05:39.592Z,108.20
2018-11-23T08:06:39.578Z,119.50
2018-11-23T08:07:39.591Z,118.30
2018-11-23T08:08:39.604Z,120.10
2018-11-23T08:09:39.619Z,118.30
2018-11-23T08:10:39.631Z,104.70
2018-11-23T08:11:39.645Z,109.80
2018-11-23T08:12:39.658Z,113.20
2018-11-23T08:13:39.659Z,117.30
2018-11-23T08:14:39.673Z,119.30
2018-11-23T08:15:39.686Z,122.90
2018-11-23T08:16:39.701Z,120.10
2018-11-23T08:17:39.714Z,114.90
2018-11-23T08:18:39.727Z,115.70
2018-11-23T08:19:47.024Z,112.70
2018-11-23T08:20:39.755Z,114.00
2018-11-23T08:21:39.755Z,103.30
2018-11-23T08:22:39.769Z,117.10
2018-11-23T08:23:39.787Z,108.90
2018-11-23T08:24:39.795Z,111.20
2018-11-23T08:25:39.808Z,106.90
2018-11-23T08:26:39.836Z,107.40
2018-11-23T08:27:39.825Z,106.70
2018-11-23T08:28:39.838Z,117.40
2018-11-23T08:29:39.850Z,123.60
2018-11-23T08:30:39.864Z,110.70
2018-11-23T08:31:39.877Z,108.00
2018-11-23T08:32:39.893Z,117.80
2018-11-23T08:33:39.918Z,96.50
2018-11-23T08:34:39.921Z,107.70
2018-11-23T08:35:39.922Z,114.10
2018-11-23T08:36:39.934Z,117.80
2018-11-23T08:37:39.947Z,109.80
2018-11-23T08:38:39.961Z,114.80
2018-11-23T08:39:39.974Z,106.50
2018-11-23T08:40:39.988Z,117.20
2018-11-23T08:41:40.002Z,115.90
2018-11-23T08:42:40.014Z,115.30
2018-11-23T08:43:40.015Z,112.60
2018-11-23T08:44:40.034Z,107.00
2018-11-23T08:45:40.043Z,109.80
2018-11-23T08:46:40.058Z,107.00
2018-11-23T08:47:40.068Z,112.80
2018-11-23T08:48:40.083Z,110.40
2018-11-23T08:49:40.097Z,111.90
2018-11-23T08:50:40.102Z,110.20
2018-11-23T08:51:40.112Z,110.00
2018-11-23T08:52:40.124Z,109.70
2018-11-23T08:53:40.137Z,112.50
2018-11-23T08:54:40.153Z,115.90
2018-11-23T08:55:40.165Z,115.60
2018-11-23T08:56:40.179Z,113.00
2018-11-23T08:57:40.192Z,106.10
2018-11-23T08:58:40.209Z,98.80
2018-11-23T08:59:40.206Z,111.70
2018-11-23T09:00:40.221Z,106.90
2018-11-23T09:01:40.234Z,105.80
2018-11-23T09:02:40.248Z,112.10
2018-11-23T09:03:40.261Z,101.20
2018-11-23T09:04:40.275Z,110.30
2018-11-23T09:05:40.340Z,103.70
2018-11-23T09:06:40.301Z,95.10
2018-11-23T09:07:40.317Z,107.60
2018-11-23T09:08:40.316Z,95.50
2018-11-23T09:09:40.330Z,104.50
2018-11-23T09:10:40.355Z,99.80
2018-11-23T09:11:40.358Z,95.50
2018-11-23T09:12:40.370Z,100.70
2018-11-23T09:13:40.385Z,96.80
2018-11-23T09:14:40.397Z,96.80
2018-11-23T09:15:40.411Z,102.20
2018-11-23T09:16:40.424Z,94.60
2018-11-23T09:17:40.438Z,98.60
2018-11-23T09:18:40.450Z,95.10
2018-11-23T09:19:40.452Z,97.30
2018-11-23T09:20:40.468Z,95.00
2018-11-23T09:21:40.480Z,100.00
2018-11-23T09:22:40.497Z,104.20
2018-11-23T09:23:40.506Z,97.90
2018-11-23T09:24:40.525Z,92.60
2018-11-23T09:25:40.547Z,106.50
2018-11-23T09:26:40.553Z,98.00
2018-11-23T09:27:40.560Z,93.80
2018-11-23T09:28:40.575Z,103.80
2018-11-23T09:29:40.575Z,94.30
2018-11-23T09:30:40.589Z,97.70
2018-11-23T09:31:40.606Z,91.90
2018-11-23T09:32:40.615Z,96.50
2018-11-23T09:33:40.629Z,87.20
2018-11-23T09:34:40.848Z,94.40
2018-11-23T09:35:40.657Z,91.30
2018-11-23T09:36:40.673Z,90.10
2018-11-23T09:37:40.683Z,89.00
2018-11-23T09:38:40.696Z,92.20
2018-11-23T09:39:40.699Z,96.40
2018-11-23T09:40:40.718Z,94.30
2018-11-23T09:41:40.725Z,88.90
2018-11-23T09:42:40.739Z,94.20
2018-11-23T09:43:40.760Z,93.50
2018-11-23T09:44:40.766Z,91.10
2018-11-23T09:45:40.779Z,80.40
2018-11-23T09:46:40.792Z,85.00
2018-11-23T09:47:40.806Z,80.90
2018-11-23T09:48:40.820Z,78.70
2018-11-23T09:49:40.857Z,81.40
2018-11-23T09:50:40.858Z,84.30
2018-11-23T09:51:40.860Z,83.00
2018-11-23T09:52:40.863Z,82.50
2018-11-23T09:53:40.877Z,94.00
2018-11-23T09:54:40.888Z,84.20
2018-11-23T09:55:40.902Z,78.50
2018-11-23T09:56:40.915Z,86.80
2018-11-23T09:57:40.930Z,73.80
2018-11-23T09:58:43.620Z,81.20
2018-11-23T09:59:40.957Z,75.10
2018-11-23T10:00:40.969Z,76.70
2018-11-23T10:01:40.984Z,78.20
2018-11-23T10:02:40.998Z,79.60
2018-11-23T10:03:41.014Z,82.10
2018-11-23T10:04:41.023Z,83.10
2018-11-23T10:05:41.025Z,81.80
2018-11-23T10:06:41.040Z,83.00
2018-11-23T10:07:41.055Z,90.70
2018-11-23T10:08:41.065Z,79.90
2018-11-23T10:09:41.078Z,84.10
2018-11-23T10:10:41.093Z,69.30
2018-11-23T10:11:41.105Z,74.50
2018-11-23T10:12:41.120Z,79.90
2018-11-23T10:13:41.134Z,82.30
2018-11-23T10:14:41.152Z,78.90
2018-11-23T10:15:41.162Z,78.20
2018-11-23T10:16:41.174Z,75.20
2018-11-23T10:17:41.176Z,73.80
2018-11-23T10:18:41.202Z,84.00
2018-11-23T10:19:41.202Z,85.00
2018-11-23T10:20:41.231Z,78.30
2018-11-23T10:21:41.230Z,78.30
2018-11-23T10:22:41.243Z,78.00
2018-11-23T10:23:41.256Z,66.90
2018-11-23T10:24:41.274Z,77.00
2018-11-23T10:25:41.313Z,76.20
2018-11-23T10:26:41.330Z,72.50
2018-11-23T10:27:41.309Z,72.50
2018-11-23T10:28:41.323Z,78.30
2018-11-23T10:29:41.337Z,76.20
2018-11-23T10:30:41.353Z,72.80
2018-11-23T10:31:41.352Z,72.30
2018-11-23T10:32:41.367Z,74.30
2018-11-23T10:33:41.379Z,70.90
2018-11-23T10:34:41.393Z,74.00
2018-11-23T10:35:41.427Z,71.20
2018-11-23T10:36:41.421Z,72.40
2018-11-23T10:37:41.433Z,73.30
2018-11-23T10:38:41.446Z,74.50
2018-11-23T10:39:41.459Z,75.80
2018-11-23T10:40:41.474Z,73.30
2018-11-23T10:41:41.487Z,79.20
2018-11-23T10:42:41.503Z,74.20
2018-11-23T10:43:41.515Z,69.00
2018-11-23T10:44:41.529Z,82.10
2018-11-23T10:45:41.541Z,67.10
2018-11-23T10:46:41.556Z,77.30
2018-11-23T10:47:41.567Z,67.20
2018-11-23T10:48:41.573Z,74.60
2018-11-23T10:49:41.584Z,70.80
2018-11-23T10:50:41.609Z,78.20
2018-11-23T10:51:41.610Z,71.00
2018-11-23T10:52:41.624Z,76.80
2018-11-23T10:53:41.638Z,72.10
2018-11-23T10:54:41.650Z,74.30
2018-11-23T10:55:41.665Z,73.40
2018-11-23T10:56:41.677Z,76.60
2018-11-23T10:57:41.694Z,77.30
2018-11-23T10:58:41.728Z,72.00
2018-11-23T10:59:41.718Z,73.10
2018-11-23T11:00:41.740Z,73.70
2018-11-23T11:01:41.746Z,71.00
2018-11-23T11:02:41.759Z,74.40
2018-11-23T11:03:41.761Z,67.40
2018-11-23T11:04:41.774Z,70.20
2018-11-23T11:05:41.787Z,71.90
2018-11-23T11:06:41.801Z,70.90
2018-11-23T11:07:41.814Z,71.00
2018-11-23T11:08:41.828Z,71.10
2018-11-23T11:09:41.855Z,74.50
2018-11-23T11:10:41.855Z,80.80
2018-11-23T11:11:41.868Z,71.10
2018-11-23T11:12:41.882Z,65.20
2018-11-23T11:13:41.895Z,68.60
2018-11-23T11:14:41.909Z,74.10
2018-11-23T11:15:41.923Z,72.80
2018-11-23T11:16:41.945Z,69.20
2018-11-23T11:17:41.948Z,68.40
2018-11-23T11:18:41.963Z,69.80
2018-11-23T11:19:41.979Z,71.00
2018-11-23T11:20:41.990Z,72.50
2018-11-23T11:21:41.994Z,74.00
2018-11-23T11:22:42.005Z,64.50
2018-11-23T11:23:42.022Z,61.90
2018-11-23T11:24:42.044Z,67.40
2018-11-23T11:25:42.045Z,65.20
2018-11-23T11:26:42.059Z,66.30
2018-11-23T11:27:42.073Z,68.70
2018-11-23T11:28:42.085Z,67.00
2018-11-23T11:29:42.099Z,68.30
2018-11-23T11:30:42.113Z,66.70
2018-11-23T11:31:42.127Z,65.30
2018-11-23T11:32:42.140Z,63.70
2018-11-23T11:33:42.154Z,62.30
2018-11-23T11:34:42.166Z,59.10
2018-11-23T11:35:42.183Z,64.80
2018-11-23T11:36:42.194Z,62.00
2018-11-23T11:37:42.208Z,61.30
2018-11-23T11:38:42.221Z,64.30
2018-11-23T11:39:42.235Z,64.00
2018-11-23T11:40:42.248Z,71.70
2018-11-23T11:41:42.263Z,64.40
2018-11-23T11:42:42.274Z,63.30
2018-11-23T11:43:42.289Z,57.20
2018-11-23T11:44:42.302Z,67.50
2018-11-23T11:45:43.329Z,60.20
2018-11-23T11:46:42.330Z,61.50
2018-11-23T11:47:42.343Z,61.60
2018-11-23T11:48:42.356Z,59.80
2018-11-23T11:49:42.359Z,63.10
2018-11-23T11:50:42.400Z,63.20
2018-11-23T11:51:42.385Z,65.60
2018-11-23T11:52:42.409Z,63.00
2018-11-23T11:53:42.411Z,63.40
2018-11-23T11:54:42.425Z,65.80
2018-11-23T11:55:42.441Z,63.80
2018-11-23T11:56:42.453Z,66.50
2018-11-23T11:57:42.465Z,62.80
2018-11-23T11:58:42.480Z,64.80
2018-11-23T11:59:42.492Z,65.40
2018-11-23T12:00:42.508Z,75.20
2018-11-23T12:01:42.519Z,72.00
2018-11-23T12:02:42.538Z,66.40
2018-11-23T12:03:42.549Z,67.30
2018-11-23T12:04:42.562Z,66.20
2018-11-23T12:05:42.574Z,62.10
2018-11-23T12:06:42.590Z,64.70
2018-11-23T12:07:42.602Z,63.70
2018-11-23T12:08:42.616Z,60.70
2018-11-23T12:09:42.640Z,67.80
2018-11-23T12:10:42.641Z,66.20
2018-11-23T12:11:42.654Z,65.60
2018-11-23T12:12:42.669Z,63.40
2018-11-23T12:13:42.681Z,65.00
2018-11-23T12:14:42.696Z,63.20
2018-11-23T12:15:42.709Z,65.10
2018-11-23T12:16:42.729Z,61.30
2018-11-23T12:17:42.736Z,69.40
2018-11-23T12:18:42.751Z,60.50
2018-11-23T12:19:42.762Z,60.90
2018-11-23T12:20:42.778Z,63.40
2018-11-23T12:21:42.790Z,69.00
2018-11-23T12:22:42.805Z,63.30
2018-11-23T12:23:42.830Z,62.90
2018-11-23T12:24:42.831Z,68.60
2018-11-23T12:25:42.845Z,66.30
2018-11-23T12:26:42.859Z,61.10
2018-11-23T12:27:42.871Z,68.90
2018-11-23T12:28:42.885Z,68.80
2018-11-23T12:29:42.898Z,68.70
2018-11-23T12:30:42.916Z,66.20
2018-11-23T12:31:42.925Z,69.10
2018-11-23T12:32:42.942Z,71.50
2018-11-23T12:33:42.957Z,64.80
2018-11-23T12:34:42.966Z,67.40
2018-11-23T12:35:42.980Z,66.60
2018-11-23T12:36:42.997Z,66.20
2018-11-23T12:37:43.020Z,69.40
2018-11-23T12:38:43.290Z,67.40
2018-11-23T12:39:43.033Z,74.00
2018-11-23T12:40:43.048Z,66.90
2018-11-23T12:41:43.061Z,65.80
2018-11-23T12:42:43.078Z,62.00
2018-11-23T12:43:43.087Z,64.20
2018-11-23T12:44:43.108Z,73.50